sensor_id;sensor_type;location;lat;lon;timestamp;P1;durP1;ratioP1;P2;durP2;ratioP2
42420;SDS011;28063;48.140;11.588;2023-04-23T00:01:03;0.38;;;0.38;;
42420;SDS011;28063;48.140;11.588;2023-04-23T00:03:31;1.05;;;0.63;;
42420;SDS011;28063;48.140;11.588;2023-04-23T00:06:02;0.70;;;0.70;;
42420;SDS011;28063;48.140;11.588;2023-04-23T00:08:30;0.57;;;0.50;;
42420;SDS011;28063;48.140;11.588;2023-04-23T00:10:56;0.57;;;0.57;;
42420;SDS011;28063;48.140;11.588;2023-04-23T00:13:23;0.40;;;0.40;;
42420;SDS011;28063;48.140;11.588;2023-04-23T00:15:49;0.52;;;0.52;;
42420;SDS011;28063;48.140;11.588;2023-04-23T00:18:15;0.40;;;0.40;;
42420;SDS011;28063;48.140;11.588;2023-04-23T00:20:44;0.60;;;0.60;;
42420;SDS011;28063;48.140;11.588;2023-04-23T00:23:10;0.47;;;0.47;;
42420;SDS011;28063;48.140;11.588;2023-04-23T00:25:36;0.65;;;0.47;;
42420;SDS011;28063;48.140;11.588;2023-04-23T00:28:01;0.38;;;0.38;;
42420;SDS011;28063;48.140;11.588;2023-04-23T00:30:27;0.47;;;0.40;;
42420;SDS011;28063;48.140;11.588;2023-04-23T00:32:53;0.50;;;0.50;;
42420;SDS011;28063;48.140;11.588;2023-04-23T00:35:19;0.88;;;0.88;;
42420;SDS011;28063;48.140;11.588;2023-04-23T00:37:45;1.08;;;0.93;;
42420;SDS011;28063;48.140;11.588;2023-04-23T00:40:11;0.50;;;0.50;;
42420;SDS011;28063;48.140;11.588;2023-04-23T00:42:37;0.80;;;0.80;;
42420;SDS011;28063;48.140;11.588;2023-04-23T00:45:07;0.57;;;0.57;;
42420;SDS011;28063;48.140;11.588;2023-04-23T00:47:33;0.50;;;0.50;;
42420;SDS011;28063;48.140;11.588;2023-04-23T00:50:00;0.60;;;0.60;;
42420;SDS011;28063;48.140;11.588;2023-04-23T00:52:27;0.65;;;0.65;;
42420;SDS011;28063;48.140;11.588;2023-04-23T00:54:56;0.68;;;0.68;;
42420;SDS011;28063;48.140;11.588;2023-04-23T00:57:22;0.47;;;0.47;;
42420;SDS011;28063;48.140;11.588;2023-04-23T00:59:48;0.60;;;0.60;;
42420;SDS011;28063;48.140;11.588;2023-04-23T01:02:14;0.50;;;0.50;;
42420;SDS011;28063;48.140;11.588;2023-04-23T01:04:42;0.50;;;0.50;;
42420;SDS011;28063;48.140;11.588;2023-04-23T01:07:09;0.57;;;0.57;;
42420;SDS011;28063;48.140;11.588;2023-04-23T01:09:36;0.47;;;0.47;;
42420;SDS011;28063;48.140;11.588;2023-04-23T01:12:04;0.50;;;0.38;;
42420;SDS011;28063;48.140;11.588;2023-04-23T01:14:30;0.45;;;0.30;;
42420;SDS011;28063;48.140;11.588;2023-04-23T01:16:57;0.50;;;0.50;;
42420;SDS011;28063;48.140;11.588;2023-04-23T01:22:51;0.52;;;0.52;;
42420;SDS011;28063;48.140;11.588;2023-04-23T01:25:17;0.43;;;0.43;;
42420;SDS011;28063;48.140;11.588;2023-04-23T01:28:00;0.32;;;0.32;;
42420;SDS011;28063;48.140;11.588;2023-04-23T01:30:32;0.40;;;0.40;;
42420;SDS011;28063;48.140;11.588;2023-04-23T01:33:24;0.50;;;0.50;;
42420;SDS011;28063;48.140;11.588;2023-04-23T01:35:56;0.30;;;0.30;;
42420;SDS011;28063;48.140;11.588;2023-04-23T01:38:26;0.40;;;0.40;;
42420;SDS011;28063;48.140;11.588;2023-04-23T01:40:58;0.30;;;0.30;;
42420;SDS011;28063;48.140;11.588;2023-04-23T01:43:23;0.40;;;0.40;;
42420;SDS011;28063;48.140;11.588;2023-04-23T01:49:31;0.30;;;0.30;;
42420;SDS011;28063;48.140;11.588;2023-04-23T01:52:03;0.40;;;0.40;;
42420;SDS011;28063;48.140;11.588;2023-04-23T01:57:23;0.40;;;0.40;;
42420;SDS011;28063;48.140;11.588;2023-04-23T02:00:09;0.55;;;0.55;;
42420;SDS011;28063;48.140;11.588;2023-04-23T02:03:10;0.50;;;0.50;;
42420;SDS011;28063;48.140;11.588;2023-04-23T02:05:41;0.40;;;0.40;;
42420;SDS011;28063;48.140;11.588;2023-04-23T02:08:13;0.45;;;0.45;;
42420;SDS011;28063;48.140;11.588;2023-04-23T02:10:42;1.15;;;0.40;;
42420;SDS011;28063;48.140;11.588;2023-04-23T02:13:08;0.30;;;0.30;;
42420;SDS011;28063;48.140;11.588;2023-04-23T02:15:37;0.50;;;0.50;;
42420;SDS011;28063;48.140;11.588;2023-04-23T02:21:52;0.40;;;0.40;;
42420;SDS011;28063;48.140;11.588;2023-04-23T02:25:06;0.30;;;0.30;;
42420;SDS011;28063;48.140;11.588;2023-04-23T02:27:45;0.30;;;0.30;;
42420;SDS011;28063;48.140;11.588;2023-04-23T02:30:35;0.30;;;0.30;;
42420;SDS011;28063;48.140;11.588;2023-04-23T02:33:42;0.30;;;0.30;;
42420;SDS011;28063;48.140;11.588;2023-04-23T02:36:07;0.38;;;0.38;;
42420;SDS011;28063;48.140;11.588;2023-04-23T02:38:45;0.30;;;0.30;;
42420;SDS011;28063;48.140;11.588;2023-04-23T02:41:13;0.40;;;0.40;;
42420;SDS011;28063;48.140;11.588;2023-04-23T02:43:39;0.22;;;0.22;;
42420;SDS011;28063;48.140;11.588;2023-04-23T02:46:04;0.30;;;0.30;;
42420;SDS011;28063;48.140;11.588;2023-04-23T02:48:37;0.57;;;0.30;;
42420;SDS011;28063;48.140;11.588;2023-04-23T02:51:04;0.30;;;0.30;;
42420;SDS011;28063;48.140;11.588;2023-04-23T02:53:31;0.40;;;0.40;;
42420;SDS011;28063;48.140;11.588;2023-04-23T02:55:57;0.50;;;0.50;;
42420;SDS011;28063;48.140;11.588;2023-04-23T02:58:23;0.85;;;0.70;;
42420;SDS011;28063;48.140;11.588;2023-04-23T03:00:48;1.50;;;1.40;;
42420;SDS011;28063;48.140;11.588;2023-04-23T03:03:14;2.35;;;1.60;;
42420;SDS011;28063;48.140;11.588;2023-04-23T03:05:40;1.20;;;1.10;;
42420;SDS011;28063;48.140;11.588;2023-04-23T03:08:06;2.10;;;0.95;;
42420;SDS011;28063;48.140;11.588;2023-04-23T03:10:31;1.10;;;0.98;;
42420;SDS011;28063;48.140;11.588;2023-04-23T03:12:57;0.80;;;0.80;;
42420;SDS011;28063;48.140;11.588;2023-04-23T03:15:23;1.00;;;1.00;;
42420;SDS011;28063;48.140;11.588;2023-04-23T03:17:49;0.90;;;0.90;;
42420;SDS011;28063;48.140;11.588;2023-04-23T03:20:16;0.77;;;0.73;;
42420;SDS011;28063;48.140;11.588;2023-04-23T03:22:42;0.60;;;0.60;;
42420;SDS011;28063;48.140;11.588;2023-04-23T03:25:08;0.80;;;0.75;;
42420;SDS011;28063;48.140;11.588;2023-04-23T03:27:34;0.35;;;0.35;;
42420;SDS011;28063;48.140;11.588;2023-04-23T03:30:00;0.77;;;0.77;;
42420;SDS011;28063;48.140;11.588;2023-04-23T03:32:25;0.60;;;0.60;;
42420;SDS011;28063;48.140;11.588;2023-04-23T03:34:51;0.60;;;0.60;;
42420;SDS011;28063;48.140;11.588;2023-04-23T03:37:17;0.40;;;0.40;;
42420;SDS011;28063;48.140;11.588;2023-04-23T03:39:42;0.57;;;0.50;;
42420;SDS011;28063;48.140;11.588;2023-04-23T03:42:08;0.50;;;0.50;;
42420;SDS011;28063;48.140;11.588;2023-04-23T03:44:33;0.30;;;0.30;;
42420;SDS011;28063;48.140;11.588;2023-04-23T03:46:59;0.80;;;0.80;;
42420;SDS011;28063;48.140;11.588;2023-04-23T03:49:25;0.50;;;0.50;;
42420;SDS011;28063;48.140;11.588;2023-04-23T03:51:51;0.50;;;0.50;;
42420;SDS011;28063;48.140;11.588;2023-04-23T03:54:17;0.30;;;0.30;;
42420;SDS011;28063;48.140;11.588;2023-04-23T03:56:43;0.43;;;0.43;;
42420;SDS011;28063;48.140;11.588;2023-04-23T03:59:09;0.40;;;0.40;;
42420;SDS011;28063;48.140;11.588;2023-04-23T04:01:35;0.57;;;0.50;;
42420;SDS011;28063;48.140;11.588;2023-04-23T04:04:01;0.50;;;0.50;;
42420;SDS011;28063;48.140;11.588;2023-04-23T04:06:27;0.47;;;0.47;;
42420;SDS011;28063;48.140;11.588;2023-04-23T04:08:52;0.40;;;0.40;;
42420;SDS011;28063;48.140;11.588;2023-04-23T04:11:18;0.50;;;0.50;;
42420;SDS011;28063;48.140;11.588;2023-04-23T04:13:44;0.43;;;0.43;;
42420;SDS011;28063;48.140;11.588;2023-04-23T04:16:10;0.60;;;0.60;;
42420;SDS011;28063;48.140;11.588;2023-04-23T04:18:36;1.35;;;1.25;;
42420;SDS011;28063;48.140;11.588;2023-04-23T04:21:03;1.80;;;1.20;;
42420;SDS011;28063;48.140;11.588;2023-04-23T04:23:28;3.45;;;2.03;;
42420;SDS011;28063;48.140;11.588;2023-04-23T04:25:55;2.28;;;1.80;;
42420;SDS011;28063;48.140;11.588;2023-04-23T04:28:21;1.85;;;1.75;;
42420;SDS011;28063;48.140;11.588;2023-04-23T04:30:49;2.22;;;1.60;;
42420;SDS011;28063;48.140;11.588;2023-04-23T04:33:18;3.05;;;1.70;;
42420;SDS011;28063;48.140;11.588;2023-04-23T04:35:44;1.90;;;1.73;;
42420;SDS011;28063;48.140;11.588;2023-04-23T04:38:12;2.88;;;2.33;;
42420;SDS011;28063;48.140;11.588;2023-04-23T04:40:39;4.57;;;2.38;;
42420;SDS011;28063;48.140;11.588;2023-04-23T04:43:04;2.40;;;2.20;;
42420;SDS011;28063;48.140;11.588;2023-04-23T04:45:30;2.53;;;2.28;;
42420;SDS011;28063;48.140;11.588;2023-04-23T04:47:56;1.77;;;1.67;;
42420;SDS011;28063;48.140;11.588;2023-04-23T04:50:22;2.60;;;2.40;;
42420;SDS011;28063;48.140;11.588;2023-04-23T04:52:48;1.83;;;1.60;;
42420;SDS011;28063;48.140;11.588;2023-04-23T04:55:14;1.83;;;1.52;;
42420;SDS011;28063;48.140;11.588;2023-04-23T04:57:39;1.10;;;1.10;;
42420;SDS011;28063;48.140;11.588;2023-04-23T05:00:17;1.42;;;1.33;;
42420;SDS011;28063;48.140;11.588;2023-04-23T05:02:52;2.33;;;1.70;;
42420;SDS011;28063;48.140;11.588;2023-04-23T05:05:18;2.50;;;1.58;;
42420;SDS011;28063;48.140;11.588;2023-04-23T05:07:47;4.35;;;2.00;;
42420;SDS011;28063;48.140;11.588;2023-04-23T05:10:13;3.30;;;2.45;;
42420;SDS011;28063;48.140;11.588;2023-04-23T05:12:39;3.70;;;2.10;;
42420;SDS011;28063;48.140;11.588;2023-04-23T05:15:06;1.90;;;1.70;;
42420;SDS011;28063;48.140;11.588;2023-04-23T05:17:37;3.22;;;2.00;;
42420;SDS011;28063;48.140;11.588;2023-04-23T05:20:03;3.38;;;1.75;;
42420;SDS011;28063;48.140;11.588;2023-04-23T05:22:30;3.90;;;2.63;;
42420;SDS011;28063;48.140;11.588;2023-04-23T05:24:55;2.17;;;1.98;;
42420;SDS011;28063;48.140;11.588;2023-04-23T05:27:21;3.28;;;2.70;;
42420;SDS011;28063;48.140;11.588;2023-04-23T05:29:47;2.92;;;2.30;;
42420;SDS011;28063;48.140;11.588;2023-04-23T05:32:12;2.17;;;1.77;;
42420;SDS011;28063;48.140;11.588;2023-04-23T05:34:38;2.42;;;2.22;;
42420;SDS011;28063;48.140;11.588;2023-04-23T05:37:04;3.85;;;2.88;;
42420;SDS011;28063;48.140;11.588;2023-04-23T05:39:30;3.42;;;2.70;;
42420;SDS011;28063;48.140;11.588;2023-04-23T05:41:56;3.13;;;2.30;;
42420;SDS011;28063;48.140;11.588;2023-04-23T05:44:22;2.55;;;2.13;;
42420;SDS011;28063;48.140;11.588;2023-04-23T05:46:48;2.85;;;1.92;;
42420;SDS011;28063;48.140;11.588;2023-04-23T05:49:14;3.05;;;1.75;;
42420;SDS011;28063;48.140;11.588;2023-04-23T05:51:39;7.05;;;2.80;;
42420;SDS011;28063;48.140;11.588;2023-04-23T05:54:05;4.32;;;2.53;;
42420;SDS011;28063;48.140;11.588;2023-04-23T05:56:31;3.90;;;2.47;;
42420;SDS011;28063;48.140;11.588;2023-04-23T05:58:56;4.40;;;2.70;;
42420;SDS011;28063;48.140;11.588;2023-04-23T06:01:22;3.63;;;2.85;;
42420;SDS011;28063;48.140;11.588;2023-04-23T06:03:50;4.05;;;2.55;;
42420;SDS011;28063;48.140;11.588;2023-04-23T06:06:16;3.15;;;2.78;;
42420;SDS011;28063;48.140;11.588;2023-04-23T06:08:42;3.95;;;2.80;;
42420;SDS011;28063;48.140;11.588;2023-04-23T06:11:08;3.85;;;2.78;;
42420;SDS011;28063;48.140;11.588;2023-04-23T06:13:34;2.90;;;2.60;;
42420;SDS011;28063;48.140;11.588;2023-04-23T06:16:05;2.70;;;2.50;;
42420;SDS011;28063;48.140;11.588;2023-04-23T06:18:38;3.83;;;2.75;;
42420;SDS011;28063;48.140;11.588;2023-04-23T06:23:30;5.43;;;3.40;;
42420;SDS011;28063;48.140;11.588;2023-04-23T06:25:56;5.03;;;2.72;;
42420;SDS011;28063;48.140;11.588;2023-04-23T06:28:22;3.35;;;2.70;;
42420;SDS011;28063;48.140;11.588;2023-04-23T06:30:48;2.63;;;2.40;;
42420;SDS011;28063;48.140;11.588;2023-04-23T06:33:14;9.93;;;6.93;;
42420;SDS011;28063;48.140;11.588;2023-04-23T06:35:40;10.70;;;7.63;;
42420;SDS011;28063;48.140;11.588;2023-04-23T06:38:06;9.07;;;6.07;;
42420;SDS011;28063;48.140;11.588;2023-04-23T06:40:32;6.80;;;4.75;;
42420;SDS011;28063;48.140;11.588;2023-04-23T06:42:58;7.60;;;5.88;;
42420;SDS011;28063;48.140;11.588;2023-04-23T06:45:24;7.43;;;6.18;;
42420;SDS011;28063;48.140;11.588;2023-04-23T06:47:49;5.97;;;4.40;;
42420;SDS011;28063;48.140;11.588;2023-04-23T06:50:15;4.70;;;3.92;;
42420;SDS011;28063;48.140;11.588;2023-04-23T06:52:41;3.95;;;3.55;;
42420;SDS011;28063;48.140;11.588;2023-04-23T06:55:08;2.97;;;2.78;;
42420;SDS011;28063;48.140;11.588;2023-04-23T07:00:11;2.88;;;2.67;;
42420;SDS011;28063;48.140;11.588;2023-04-23T07:02:48;2.88;;;2.50;;
42420;SDS011;28063;48.140;11.588;2023-04-23T07:05:24;3.20;;;2.08;;
42420;SDS011;28063;48.140;11.588;2023-04-23T07:08:20;2.57;;;2.30;;
42420;SDS011;28063;48.140;11.588;2023-04-23T07:10:58;1.95;;;1.85;;
42420;SDS011;28063;48.140;11.588;2023-04-23T07:13:24;2.10;;;1.90;;
42420;SDS011;28063;48.140;11.588;2023-04-23T07:15:50;2.00;;;1.88;;
42420;SDS011;28063;48.140;11.588;2023-04-23T07:18:19;1.77;;;1.67;;
42420;SDS011;28063;48.140;11.588;2023-04-23T07:20:54;1.60;;;1.50;;
42420;SDS011;28063;48.140;11.588;2023-04-23T07:23:49;1.40;;;1.30;;
42420;SDS011;28063;48.140;11.588;2023-04-23T07:26:14;1.27;;;1.17;;
42420;SDS011;28063;48.140;11.588;2023-04-23T07:28:41;1.10;;;1.10;;
42420;SDS011;28063;48.140;11.588;2023-04-23T07:31:07;0.80;;;0.80;;
42420;SDS011;28063;48.140;11.588;2023-04-23T07:33:33;0.98;;;0.98;;
42420;SDS011;28063;48.140;11.588;2023-04-23T07:35:58;0.70;;;0.70;;
42420;SDS011;28063;48.140;11.588;2023-04-23T07:38:24;0.60;;;0.60;;
42420;SDS011;28063;48.140;11.588;2023-04-23T07:40:50;0.65;;;0.65;;
42420;SDS011;28063;48.140;11.588;2023-04-23T07:43:15;1.08;;;0.95;;
42420;SDS011;28063;48.140;11.588;2023-04-23T07:45:41;1.05;;;1.05;;
42420;SDS011;28063;48.140;11.588;2023-04-23T07:48:07;0.80;;;0.80;;
42420;SDS011;28063;48.140;11.588;2023-04-23T07:50:33;1.17;;;1.08;;
42420;SDS011;28063;48.140;11.588;2023-04-23T07:52:58;0.90;;;0.90;;
42420;SDS011;28063;48.140;11.588;2023-04-23T07:55:24;0.85;;;0.85;;
42420;SDS011;28063;48.140;11.588;2023-04-23T07:57:50;0.70;;;0.68;;
42420;SDS011;28063;48.140;11.588;2023-04-23T08:00:15;0.63;;;0.60;;
42420;SDS011;28063;48.140;11.588;2023-04-23T08:02:41;0.52;;;0.52;;
42420;SDS011;28063;48.140;11.588;2023-04-23T08:05:07;0.70;;;0.70;;
42420;SDS011;28063;48.140;11.588;2023-04-23T08:07:33;0.80;;;0.80;;
42420;SDS011;28063;48.140;11.588;2023-04-23T08:09:59;0.60;;;0.60;;
42420;SDS011;28063;48.140;11.588;2023-04-23T08:12:29;0.80;;;0.80;;
42420;SDS011;28063;48.140;11.588;2023-04-23T08:14:55;0.75;;;0.75;;
42420;SDS011;28063;48.140;11.588;2023-04-23T08:17:20;1.00;;;1.00;;
42420;SDS011;28063;48.140;11.588;2023-04-23T08:19:46;0.75;;;0.75;;
42420;SDS011;28063;48.140;11.588;2023-04-23T08:22:11;0.75;;;0.75;;
42420;SDS011;28063;48.140;11.588;2023-04-23T08:24:37;0.77;;;0.70;;
42420;SDS011;28063;48.140;11.588;2023-04-23T08:27:03;0.85;;;0.85;;
42420;SDS011;28063;48.140;11.588;2023-04-23T08:29:29;0.73;;;0.73;;
42420;SDS011;28063;48.140;11.588;2023-04-23T08:31:54;0.70;;;0.70;;
42420;SDS011;28063;48.140;11.588;2023-04-23T08:34:20;0.60;;;0.60;;
42420;SDS011;28063;48.140;11.588;2023-04-23T08:36:45;0.65;;;0.65;;
42420;SDS011;28063;48.140;11.588;2023-04-23T08:39:12;0.35;;;0.35;;
42420;SDS011;28063;48.140;11.588;2023-04-23T08:41:39;0.50;;;0.50;;
42420;SDS011;28063;48.140;11.588;2023-04-23T08:46:41;0.32;;;0.32;;
42420;SDS011;28063;48.140;11.588;2023-04-23T08:49:10;0.43;;;0.43;;
42420;SDS011;28063;48.140;11.588;2023-04-23T08:51:42;0.35;;;0.32;;
42420;SDS011;28063;48.140;11.588;2023-04-23T08:54:14;0.50;;;0.50;;
42420;SDS011;28063;48.140;11.588;2023-04-23T08:56:43;0.60;;;0.60;;
42420;SDS011;28063;48.140;11.588;2023-04-23T08:59:10;0.43;;;0.43;;
42420;SDS011;28063;48.140;11.588;2023-04-23T09:01:35;0.38;;;0.38;;
42420;SDS011;28063;48.140;11.588;2023-04-23T09:04:01;0.40;;;0.40;;
42420;SDS011;28063;48.140;11.588;2023-04-23T09:06:28;0.33;;;0.33;;
42420;SDS011;28063;48.140;11.588;2023-04-23T09:08:56;0.30;;;0.30;;
42420;SDS011;28063;48.140;11.588;2023-04-23T09:11:25;0.47;;;0.47;;
42420;SDS011;28063;48.140;11.588;2023-04-23T09:13:53;0.73;;;0.68;;
42420;SDS011;28063;48.140;11.588;2023-04-23T09:16:20;0.45;;;0.45;;
42420;SDS011;28063;48.140;11.588;2023-04-23T09:18:49;0.60;;;0.60;;
42420;SDS011;28063;48.140;11.588;2023-04-23T09:21:15;0.50;;;0.50;;
42420;SDS011;28063;48.140;11.588;2023-04-23T09:23:41;0.63;;;0.60;;
42420;SDS011;28063;48.140;11.588;2023-04-23T09:26:07;0.70;;;0.57;;
42420;SDS011;28063;48.140;11.588;2023-04-23T09:28:36;0.60;;;0.55;;
42420;SDS011;28063;48.140;11.588;2023-04-23T09:31:05;0.60;;;0.60;;
42420;SDS011;28063;48.140;11.588;2023-04-23T09:33:33;0.60;;;0.47;;
42420;SDS011;28063;48.140;11.588;2023-04-23T09:46:34;0.60;;;0.60;;
42420;SDS011;28063;48.140;11.588;2023-04-23T09:49:48;0.65;;;0.65;;
42420;SDS011;28063;48.140;11.588;2023-04-23T10:05:42;0.40;;;0.40;;
42420;SDS011;28063;48.140;11.588;2023-04-23T10:12:38;0.60;;;0.60;;
42420;SDS011;28063;48.140;11.588;2023-04-23T10:15:52;0.80;;;0.80;;
42420;SDS011;28063;48.140;11.588;2023-04-23T10:24:33;1.13;;;0.85;;
42420;SDS011;28063;48.140;11.588;2023-04-23T10:27:05;0.55;;;0.55;;
42420;SDS011;28063;48.140;11.588;2023-04-23T10:29:38;0.85;;;0.82;;
42420;SDS011;28063;48.140;11.588;2023-04-23T10:32:06;0.63;;;0.63;;
42420;SDS011;28063;48.140;11.588;2023-04-23T10:34:32;0.50;;;0.50;;
42420;SDS011;28063;48.140;11.588;2023-04-23T10:36:59;0.60;;;0.60;;
42420;SDS011;28063;48.140;11.588;2023-04-23T10:39:26;1.15;;;1.15;;
42420;SDS011;28063;48.140;11.588;2023-04-23T10:41:56;0.60;;;0.60;;
42420;SDS011;28063;48.140;11.588;2023-04-23T10:44:30;0.80;;;0.80;;
42420;SDS011;28063;48.140;11.588;2023-04-23T10:47:01;0.60;;;0.60;;
42420;SDS011;28063;48.140;11.588;2023-04-23T10:49:29;1.02;;;0.90;;
42420;SDS011;28063;48.140;11.588;2023-04-23T10:52:02;1.30;;;1.20;;
42420;SDS011;28063;48.140;11.588;2023-04-23T10:54:32;0.85;;;0.70;;
42420;SDS011;28063;48.140;11.588;2023-04-23T10:57:01;1.15;;;0.88;;
42420;SDS011;28063;48.140;11.588;2023-04-23T10:59:29;0.80;;;0.80;;
42420;SDS011;28063;48.140;11.588;2023-04-23T11:02:05;1.25;;;1.17;;
42420;SDS011;28063;48.140;11.588;2023-04-23T11:04:54;1.90;;;1.73;;
42420;SDS011;28063;48.140;11.588;2023-04-23T11:07:24;1.50;;;1.25;;
42420;SDS011;28063;48.140;11.588;2023-04-23T11:09:53;0.85;;;0.85;;
42420;SDS011;28063;48.140;11.588;2023-04-23T11:14:50;0.60;;;0.60;;
42420;SDS011;28063;48.140;11.588;2023-04-23T11:17:17;1.67;;;0.70;;
42420;SDS011;28063;48.140;11.588;2023-04-23T11:22:41;1.20;;;1.05;;
42420;SDS011;28063;48.140;11.588;2023-04-23T11:25:09;0.70;;;0.70;;
42420;SDS011;28063;48.140;11.588;2023-04-23T11:27:39;0.70;;;0.70;;
42420;SDS011;28063;48.140;11.588;2023-04-23T11:30:13;0.60;;;0.60;;
42420;SDS011;28063;48.140;11.588;2023-04-23T11:32:40;0.60;;;0.60;;
42420;SDS011;28063;48.140;11.588;2023-04-23T11:35:08;0.82;;;0.82;;
42420;SDS011;28063;48.140;11.588;2023-04-23T11:37:39;0.75;;;0.75;;
42420;SDS011;28063;48.140;11.588;2023-04-23T11:40:07;0.60;;;0.60;;
42420;SDS011;28063;48.140;11.588;2023-04-23T11:42:41;0.80;;;0.80;;
42420;SDS011;28063;48.140;11.588;2023-04-23T11:47:48;1.40;;;1.30;;
42420;SDS011;28063;48.140;11.588;2023-04-23T11:50:24;1.13;;;1.00;;
42420;SDS011;28063;48.140;11.588;2023-04-23T11:52:51;1.13;;;0.80;;
42420;SDS011;28063;48.140;11.588;2023-04-23T11:55:18;0.90;;;0.90;;
42420;SDS011;28063;48.140;11.588;2023-04-23T11:58:05;0.57;;;0.57;;
42420;SDS011;28063;48.140;11.588;2023-04-23T12:00:30;0.80;;;0.80;;
42420;SDS011;28063;48.140;11.588;2023-04-23T12:02:59;0.80;;;0.68;;
42420;SDS011;28063;48.140;11.588;2023-04-23T12:05:33;0.80;;;0.80;;
42420;SDS011;28063;48.140;11.588;2023-04-23T12:08:10;1.00;;;0.90;;
42420;SDS011;28063;48.140;11.588;2023-04-23T12:11:00;1.02;;;1.00;;
42420;SDS011;28063;48.140;11.588;2023-04-23T12:13:27;1.20;;;1.10;;
42420;SDS011;28063;48.140;11.588;2023-04-23T12:15:56;1.00;;;1.00;;
42420;SDS011;28063;48.140;11.588;2023-04-23T12:18:27;1.55;;;0.80;;
42420;SDS011;28063;48.140;11.588;2023-04-23T12:23:32;1.63;;;0.70;;
42420;SDS011;28063;48.140;11.588;2023-04-23T12:26:00;0.90;;;0.90;;
42420;SDS011;28063;48.140;11.588;2023-04-23T12:28:30;1.08;;;1.00;;
42420;SDS011;28063;48.140;11.588;2023-04-23T12:31:00;0.70;;;0.70;;
42420;SDS011;28063;48.140;11.588;2023-04-23T12:33:29;2.08;;;1.58;;
42420;SDS011;28063;48.140;11.588;2023-04-23T12:35:56;0.90;;;0.90;;
42420;SDS011;28063;48.140;11.588;2023-04-23T12:38:22;1.10;;;0.90;;
42420;SDS011;28063;48.140;11.588;2023-04-23T12:40:50;1.25;;;1.15;;
42420;SDS011;28063;48.140;11.588;2023-04-23T12:43:16;1.17;;;1.08;;
42420;SDS011;28063;48.140;11.588;2023-04-23T12:45:44;1.00;;;1.00;;
42420;SDS011;28063;48.140;11.588;2023-04-23T12:48:10;2.38;;;1.77;;
42420;SDS011;28063;48.140;11.588;2023-04-23T12:50:37;1.15;;;1.13;;
42420;SDS011;28063;48.140;11.588;2023-04-23T12:53:03;0.98;;;0.98;;
42420;SDS011;28063;48.140;11.588;2023-04-23T12:55:29;1.38;;;1.23;;
42420;SDS011;28063;48.140;11.588;2023-04-23T12:57:54;2.70;;;1.50;;
42420;SDS011;28063;48.140;11.588;2023-04-23T13:00:22;1.08;;;1.02;;
42420;SDS011;28063;48.140;11.588;2023-04-23T13:02:48;1.35;;;1.25;;
42420;SDS011;28063;48.140;11.588;2023-04-23T13:05:13;0.90;;;0.90;;
42420;SDS011;28063;48.140;11.588;2023-04-23T13:07:39;1.08;;;1.08;;
42420;SDS011;28063;48.140;11.588;2023-04-23T13:10:06;0.80;;;0.80;;
42420;SDS011;28063;48.140;11.588;2023-04-23T13:12:32;0.80;;;0.80;;
42420;SDS011;28063;48.140;11.588;2023-04-23T13:14:58;0.88;;;0.88;;
42420;SDS011;28063;48.140;11.588;2023-04-23T13:17:24;1.02;;;1.00;;
42420;SDS011;28063;48.140;11.588;2023-04-23T13:19:50;2.63;;;1.40;;
42420;SDS011;28063;48.140;11.588;2023-04-23T13:22:17;1.10;;;1.00;;
42420;SDS011;28063;48.140;11.588;2023-04-23T13:24:43;0.93;;;0.93;;
42420;SDS011;28063;48.140;11.588;2023-04-23T13:27:08;0.98;;;0.98;;
42420;SDS011;28063;48.140;11.588;2023-04-23T13:29:35;0.80;;;0.80;;
42420;SDS011;28063;48.140;11.588;2023-04-23T13:32:01;0.90;;;0.90;;
42420;SDS011;28063;48.140;11.588;2023-04-23T13:34:27;1.00;;;1.00;;
42420;SDS011;28063;48.140;11.588;2023-04-23T13:36:53;1.60;;;1.50;;
42420;SDS011;28063;48.140;11.588;2023-04-23T13:39:18;1.30;;;1.10;;
42420;SDS011;28063;48.140;11.588;2023-04-23T13:41:45;0.98;;;0.80;;
42420;SDS011;28063;48.140;11.588;2023-04-23T13:44:11;0.90;;;0.90;;
42420;SDS011;28063;48.140;11.588;2023-04-23T13:46:37;0.98;;;0.90;;
42420;SDS011;28063;48.140;11.588;2023-04-23T13:49:04;1.02;;;0.90;;
42420;SDS011;28063;48.140;11.588;2023-04-23T13:51:30;0.90;;;0.90;;
42420;SDS011;28063;48.140;11.588;2023-04-23T13:53:55;1.00;;;1.00;;
42420;SDS011;28063;48.140;11.588;2023-04-23T13:56:22;1.15;;;1.05;;
42420;SDS011;28063;48.140;11.588;2023-04-23T13:58:48;1.52;;;1.40;;
42420;SDS011;28063;48.140;11.588;2023-04-23T14:01:16;1.23;;;1.23;;
42420;SDS011;28063;48.140;11.588;2023-04-23T14:03:42;0.98;;;0.85;;
42420;SDS011;28063;48.140;11.588;2023-04-23T14:06:11;1.20;;;1.20;;
42420;SDS011;28063;48.140;11.588;2023-04-23T14:09:00;1.00;;;1.00;;
42420;SDS011;28063;48.140;11.588;2023-04-23T14:11:44;0.95;;;0.95;;
42420;SDS011;28063;48.140;11.588;2023-04-23T14:14:33;1.63;;;1.30;;
42420;SDS011;28063;48.140;11.588;2023-04-23T14:17:19;2.15;;;1.10;;
42420;SDS011;28063;48.140;11.588;2023-04-23T14:19:45;1.10;;;1.10;;
42420;SDS011;28063;48.140;11.588;2023-04-23T14:22:11;1.55;;;1.42;;
42420;SDS011;28063;48.140;11.588;2023-04-23T14:42:04;0.80;;;0.80;;
42420;SDS011;28063;48.140;11.588;2023-04-23T15:02:32;0.90;;;0.90;;
42420;SDS011;28063;48.140;11.588;2023-04-23T15:06:16;1.13;;;1.10;;
42420;SDS011;28063;48.140;11.588;2023-04-23T15:17:12;1.15;;;0.80;;
42420;SDS011;28063;48.140;11.588;2023-04-23T15:20:48;0.90;;;0.90;;
42420;SDS011;28063;48.140;11.588;2023-04-23T15:27:40;0.88;;;0.88;;
42420;SDS011;28063;48.140;11.588;2023-04-23T15:38:10;1.10;;;1.10;;
42420;SDS011;28063;48.140;11.588;2023-04-23T15:41:18;1.27;;;1.02;;
42420;SDS011;28063;48.140;11.588;2023-04-23T15:43:44;1.73;;;1.13;;
42420;SDS011;28063;48.140;11.588;2023-04-23T15:46:12;2.65;;;1.10;;
42420;SDS011;28063;48.140;11.588;2023-04-23T15:48:38;1.35;;;1.10;;
42420;SDS011;28063;48.140;11.588;2023-04-23T15:51:04;1.85;;;1.38;;
42420;SDS011;28063;48.140;11.588;2023-04-23T15:53:30;1.70;;;1.27;;
42420;SDS011;28063;48.140;11.588;2023-04-23T15:55:56;1.00;;;0.82;;
42420;SDS011;28063;48.140;11.588;2023-04-23T15:58:21;0.80;;;0.80;;
42420;SDS011;28063;48.140;11.588;2023-04-23T16:00:47;2.40;;;1.65;;
42420;SDS011;28063;48.140;11.588;2023-04-23T16:03:13;1.60;;;1.33;;
42420;SDS011;28063;48.140;11.588;2023-04-23T16:05:42;1.30;;;1.20;;
42420;SDS011;28063;48.140;11.588;2023-04-23T16:08:09;1.75;;;1.30;;
42420;SDS011;28063;48.140;11.588;2023-04-23T16:10:38;1.95;;;1.17;;
42420;SDS011;28063;48.140;11.588;2023-04-23T16:13:04;2.08;;;1.45;;
42420;SDS011;28063;48.140;11.588;2023-04-23T16:15:30;1.17;;;1.10;;
42420;SDS011;28063;48.140;11.588;2023-04-23T16:17:56;2.08;;;1.58;;
42420;SDS011;28063;48.140;11.588;2023-04-23T16:20:23;1.50;;;1.40;;
42420;SDS011;28063;48.140;11.588;2023-04-23T16:22:50;1.30;;;1.20;;
42420;SDS011;28063;48.140;11.588;2023-04-23T16:25:15;1.52;;;1.42;;
42420;SDS011;28063;48.140;11.588;2023-04-23T16:27:41;1.63;;;1.52;;
42420;SDS011;28063;48.140;11.588;2023-04-23T16:30:07;1.42;;;1.33;;
42420;SDS011;28063;48.140;11.588;2023-04-23T16:32:33;1.27;;;1.17;;
42420;SDS011;28063;48.140;11.588;2023-04-23T16:34:59;1.00;;;1.00;;
42420;SDS011;28063;48.140;11.588;2023-04-23T16:37:25;1.23;;;1.13;;
42420;SDS011;28063;48.140;11.588;2023-04-23T16:39:51;1.00;;;1.00;;
42420;SDS011;28063;48.140;11.588;2023-04-23T16:42:17;1.35;;;1.25;;
42420;SDS011;28063;48.140;11.588;2023-04-23T16:44:43;1.15;;;1.08;;
42420;SDS011;28063;48.140;11.588;2023-04-23T16:47:10;1.00;;;1.00;;